Time;durP1;ratioP1;P1;durP2;ratioP2;P2;SDS_P1;SDS_P2;PMS_P1;PMS_P2;Temp;Humidity;BMP_temperature;BMP_pressure;BME280_temperature;BME280_humidity;BME280_pressure;Samples;Min_cycle;Max_cycle;Signal;HPM_P1;HPM_P2
2022/01/30 00:02:00;;;;;;;7.83;3.55;;;;;;;4.38;78.90;95650.61;1745915;81;21017;-81
2022/01/30 00:04:26;;;;;;;2.55;1.62;;;;;;;4.37;78.66;95627.14;1744183;82;21394;-81
2022/01/30 00:06:51;;;;;;;3.55;2.15;;;;;;;4.36;78.83;95635.02;1740823;82;20995;-81
2022/01/30 00:09:20;;;;;;;1.75;1.40;;;;;;;4.34;79.06;95631.81;1740799;82;20976;-81
2022/01/30 00:11:49;;;;;;;1.72;1.40;;;;;;;4.30;79.00;95645.48;1740668;82;21466;-81
2022/01/30 00:14:15;;;;;;;3.08;1.90;;;;;;;4.30;79.36;95674.25;1740015;82;20988;-81
2022/01/30 00:16:40;;;;;;;3.52;1.85;;;;;;;4.29;79.46;95647.73;1740357;82;20941;-81
2022/01/30 00:21:42;;;;;;;1.70;1.20;;;;;;;4.30;79.50;95652.39;1740381;81;21056;-81
2022/01/30 00:24:12;;;;;;;1.90;1.30;;;;;;;4.28;79.53;95662.84;1720135;82;21337;-81
2022/01/30 00:26:36;;;;;;;2.65;1.67;;;;;;;4.27;79.82;95657.37;1739933;82;20972;-81
2022/01/30 00:29:04;;;;;;;2.15;1.57;;;;;;;4.28;79.82;95647.89;1740347;82;21060;-81
2022/01/30 00:31:31;;;;;;;3.47;2.25;;;;;;;4.30;79.91;95638.25;1733658;82;21388;-82
2022/01/30 00:33:57;;;;;;;1.50;1.40;;;;;;;4.31;79.74;95636.80;1710848;84;21024;-81
2022/01/30 00:36:23;;;;;;;1.98;1.77;;;;;;;4.31;79.72;95650.94;1711233;84;21341;-81
2022/01/30 00:38:49;;;;;;;2.27;1.60;;;;;;;4.29;79.68;95643.88;1711293;84;21020;-81
2022/01/30 00:41:15;;;;;;;1.47;1.20;;;;;;;4.30;79.83;95621.53;1711313;84;21111;-81
2022/01/30 00:43:40;;;;;;;1.52;1.35;;;;;;;4.14;79.76;95592.77;1711206;83;21408;-81
2022/01/30 00:46:06;;;;;;;2.02;1.32;;;;;;;4.34;79.79;95631.81;1711253;84;20925;-81
2022/01/30 00:48:32;;;;;;;1.95;1.50;;;;;;;4.36;79.77;95628.59;1711147;84;20993;-81
2022/01/30 00:50:58;;;;;;;2.08;1.60;;;;;;;4.37;79.85;95605.76;1711233;83;21034;-81
2022/01/30 00:53:23;;;;;;;2.22;1.60;;;;;;;4.35;79.71;95611.07;1711271;83;20980;-81
2022/01/30 00:55:49;;;;;;;1.55;1.30;;;;;;;4.33;79.89;95602.72;1711163;82;21020;-81
2022/01/30 00:58:15;;;;;;;2.15;1.92;;;;;;;4.33;80.00;95623.77;1711064;84;21043;-81
2022/01/30 01:00:40;;;;;;;2.70;1.87;;;;;;;4.31;79.96;95616.70;1711285;83;22012;-81
2022/01/30 01:03:06;;;;;;;2.77;2.20;;;;;;;4.29;80.12;95607.06;1711248;84;21000;-81
2022/01/30 01:05:34;;;;;;;3.25;2.37;;;;;;;4.26;80.27;95604.83;1711473;83;20988;-81
2022/01/30 01:08:08;;;;;;;2.83;2.10;;;;;;;4.21;80.47;95596.28;1711208;84;20996;-81
2022/01/30 01:10:55;;;;;;;1.85;1.55;;;;;;;4.17;80.50;95584.72;1710355;83;21347;-81
2022/01/30 01:23:44;;;;;;;1.98;1.40;;;;;;;4.12;81.21;95626.83;1711874;83;21020;-81
2022/01/30 01:26:07;;;;;;;2.92;1.55;;;;;;;4.13;81.96;95643.38;1716400;83;21060;-81
2022/01/30 01:28:34;;;;;;;2.70;1.80;;;;;;;4.14;82.24;95632.13;1711105;84;21040;-81
2022/01/30 01:31:00;;;;;;;1.55;1.32;;;;;;;4.11;82.30;95614.46;1711207;83;20973;-81
2022/01/30 01:33:34;;;;;;;1.57;1.42;;;;;;;4.09;81.94;95641.30;1711419;84;21336;-81
2022/01/30 01:35:54;;;;;;;1.55;1.45;;;;;;;4.03;81.45;95641.44;1711873;84;21356;-82
2022/01/30 01:38:20;;;;;;;2.47;2.20;;;;;;;4.04;82.00;95656.37;1732102;82;21004;-81
2022/01/30 01:40:51;;;;;;;1.65;1.55;;;;;;;3.89;82.25;95615.88;1740800;82;21001;-81
2022/01/30 01:43:15;;;;;;;2.17;1.50;;;;;;;4.02;82.13;95616.70;1739944;82;21092;-82
2022/01/30 01:45:41;;;;;;;2.12;1.92;;;;;;;4.02;82.34;95631.31;1714462;82;21032;-81
2022/01/30 01:48:12;;;;;;;1.87;1.57;;;;;;;3.99;83.57;95622.16;1711355;83;20957;-81
2022/01/30 01:50:43;;;;;;;2.20;1.72;;;;;;;3.90;84.86;95620.53;1711354;83;21016;-81
2022/01/30 01:53:10;;;;;;;2.15;1.40;;;;;;;3.78;85.66;95632.09;1691870;84;21000;-82
2022/01/30 01:55:36;;;;;;;2.72;1.70;;;;;;;3.69;86.12;95642.02;1691723;84;20973;-81
2022/01/30 01:58:04;;;;;;;2.35;2.10;;;;;;;3.61;86.22;95669.31;1712177;83;20984;-82
2022/01/30 02:00:29;;;;;;;3.37;2.20;;;;;;;3.58;86.22;95673.96;1711913;84;20968;-82
2022/01/30 02:02:55;;;;;;;4.85;2.20;;;;;;;3.53;87.58;95678.26;1711851;84;21410;-82
2022/01/30 02:05:23;;;;;;;3.10;2.58;;;;;;;3.49;86.91;95656.90;1691225;84;20989;-81
2022/01/30 02:10:24;;;;;;;3.00;2.70;;;;;;;3.38;87.11;95682.85;1711411;83;21383;-81
2022/01/30 02:12:50;;;;;;;2.00;1.80;;;;;;;3.33;87.86;95656.36;1710619;82;21009;-81
2022/01/30 02:25:42;;;;;;;2.10;1.55;;;;;;;3.25;86.69;95642.19;1666759;83;21029;-81
2022/01/30 02:28:10;;;;;;;2.05;1.42;;;;;;;3.26;86.28;95648.96;1703140;83;21352;-81
2022/01/30 02:30:36;;;;;;;2.20;1.95;;;;;;;3.11;85.97;95623.55;1702838;84;20982;-81
2022/01/30 02:33:01;;;;;;;1.67;1.35;;;;;;;3.23;85.96;95646.67;1703031;82;21001;-81
2022/01/30 02:35:27;;;;;;;1.60;1.50;;;;;;;3.25;85.67;95630.64;1703328;84;21004;-81
2022/01/30 02:37:54;;;;;;;2.65;1.60;;;;;;;3.27;85.42;95643.67;1722872;83;21340;-81
2022/01/30 02:40:20;;;;;;;3.15;1.90;;;;;;;3.31;84.95;95628.75;1667392;83;20965;-81
2022/01/30 02:42:50;;;;;;;3.85;1.50;;;;;;;3.31;84.48;95635.17;1720075;83;21419;-81
2022/01/30 02:45:16;;;;;;;3.62;1.98;;;;;;;3.31;84.59;95646.25;1683294;84;21016;-81
2022/01/30 02:48:12;;;;;;;1.92;1.50;;;;;;;3.31;84.49;95639.02;1703068;84;21061;-81
2022/01/30 02:51:10;;;;;;;;;;;;;;;3.30;84.19;95638.22;1702212;84;21048;-81
2022/01/30 02:52:59;;;;;;;2.58;1.65;;;;;;;3.31;83.75;95646.25;1685561;84;20106;-81
2022/01/30 02:55:24;;;;;;;2.55;1.45;;;;;;;3.31;83.75;95658.28;1703446;83;20984;-81
2022/01/30 02:57:50;;;;;;;3.33;1.80;;;;;;;3.30;82.94;95643.36;1703597;83;21009;-81
2022/01/30 03:00:16;;;;;;;3.22;1.57;;;;;;;3.32;83.26;95641.91;1703388;83;20965;-81
2022/01/30 03:02:42;;;;;;;2.50;1.37;;;;;;;3.33;83.25;95651.22;1703658;83;20993;-81
2022/01/30 03:05:08;;;;;;;4.08;1.70;;;;;;;3.34;82.87;95642.56;1703691;84;21421;-82
2022/01/30 03:07:33;;;;;;;2.70;1.50;;;;;;;3.36;82.23;95644.97;1718402;83;21043;-82
2022/01/30 03:09:59;;;;;;;4.30;1.77;;;;;;;3.41;81.40;95640.16;1732853;82;20957;-81
2022/01/30 03:12:25;;;;;;;4.45;1.72;;;;;;;3.45;80.57;95629.45;1732782;82;20957;-81
2022/01/30 03:14:50;;;;;;;4.15;2.72;;;;;;;3.46;81.08;95631.53;1732532;82;21016;-81
2022/01/30 03:17:16;;;;;;;4.97;2.12;;;;;;;3.44;80.53;95624.47;1719709;82;21383;-81
2022/01/30 03:19:42;;;;;;;3.37;1.50;;;;;;;3.41;81.00;95614.00;1720642;82;20910;-81
2022/01/30 03:22:08;;;;;;;3.00;1.65;;;;;;;3.40;80.47;95598.27;1729741;83;21052;-81
2022/01/30 03:24:36;;;;;;;3.52;2.00;;;;;;;3.41;79.94;95589.61;1732447;82;21386;-82
2022/01/30 03:27:02;;;;;;;2.45;1.60;;;;;;;3.43;80.22;95595.41;1732517;82;21040;-81
2022/01/30 03:29:28;;;;;;;4.00;1.67;;;;;;;3.43;79.08;95589.00;1732542;83;20980;-81
2022/01/30 03:31:54;;;;;;;5.53;2.02;;;;;;;3.44;79.40;95592.37;1732379;83;21318;-81
2022/01/30 03:34:20;;;;;;;6.12;1.82;;;;;;;3.41;79.44;95580.61;1732617;83;21508;-81
2022/01/30 03:36:45;;;;;;;3.42;2.12;;;;;;;3.38;79.28;95583.98;1732539;83;21356;-81
2022/01/30 03:39:11;;;;;;;6.05;3.33;;;;;;;3.37;79.70;95577.24;1732528;82;20989;-81
2022/01/30 03:41:37;;;;;;;17.80;8.33;;;;;;;3.35;79.80;95565.05;1732619;83;20953;-81
2022/01/30 03:44:03;;;;;;;8.65;4.12;;;;;;;3.33;79.67;95584.46;1732525;82;21395;-81
2022/01/30 03:46:29;;;;;;;5.30;2.62;;;;;;;3.33;79.61;95563.92;1732487;83;20938;-81
2022/01/30 03:48:55;;;;;;;5.37;2.35;;;;;;;3.31;79.60;95562.80;1732480;83;20961;-81
2022/01/30 03:51:21;;;;;;;6.08;2.45;;;;;;;3.28;79.53;95558.46;1732444;83;20989;-81
2022/01/30 03:53:46;;;;;;;5.22;2.70;;;;;;;3.24;79.51;95548.16;1732691;82;21009;-81
2022/01/30 03:56:12;;;;;;;4.37;2.70;;;;;;;3.19;79.41;95544.78;1732578;82;20953;-81
2022/01/30 03:58:38;;;;;;;4.87;2.25;;;;;;;3.16;79.43;95545.58;1732387;83;22085;-81
2022/01/30 04:01:04;;;;;;;5.55;2.70;;;;;;;3.12;79.30;95548.95;1732375;83;20997;-81
2022/01/30 04:03:30;;;;;;;4.20;2.33;;;;;;;3.08;79.48;95551.48;1727918;83;20997;-81
2022/01/30 04:05:56;;;;;;;4.10;2.75;;;;;;;3.08;79.30;95544.27;1703449;84;21331;-81
2022/01/30 04:08:23;;;;;;;3.12;2.12;;;;;;;3.09;79.25;95547.98;1703172;83;21005;-82
2022/01/30 04:10:49;;;;;;;6.78;2.55;;;;;;;3.09;79.17;95545.86;1712428;83;21359;-81
2022/01/30 04:13:15;;;;;;;3.98;2.33;;;;;;;3.08;79.43;95531.42;1707627;82;21008;-81
2022/01/30 04:15:41;;;;;;;4.25;1.75;;;;;;;3.06;79.40;95540.56;1703401;83;21376;-81
2022/01/30 04:18:08;;;;;;;3.47;2.00;;;;;;;3.04;79.37;95528.86;1703341;84;20989;-81
2022/01/30 04:20:34;;;;;;;4.33;1.70;;;;;;;2.99;79.39;95522.44;1688480;83;20950;-81
2022/01/30 04:23:00;;;;;;;3.42;1.55;;;;;;;2.98;79.05;95529.81;1732053;83;21036;-81
2022/01/30 04:25:25;;;;;;;3.65;1.25;;;;;;;3.01;78.51;95532.06;1728138;82;22134;-81
2022/01/30 04:27:52;;;;;;;3.22;1.80;;;;;;;3.05;78.48;95526.13;1690117;83;20991;-81
2022/01/30 04:30:18;;;;;;;4.83;1.60;;;;;;;3.08;78.79;95522.44;1711338;83;20992;-81
2022/01/30 04:32:44;;;;;;;2.87;1.40;;;;;;;3.09;78.78;95543.30;1711369;82;21450;-81
2022/01/30 04:35:21;;;;;;;4.33;1.47;;;;;;;3.05;78.29;95534.31;1711517;84;20965;-81
2022/01/30 04:41:03;;;;;;;3.27;1.50;;;;;;;3.03;78.50;95575.53;1711138;83;21016;-81
2022/01/30 04:57:43;;;;;;;7.65;4.08;;;;;;;2.96;77.59;95590.75;1711223;84;21008;-81
2022/01/30 05:02:32;;;;;;;4.90;1.75;;;;;;;2.93;76.57;95586.41;1711049;84;21075;-81
2022/01/30 05:09:32;;;;;;;8.18;2.83;;;;;;;2.87;76.57;95599.36;1701238;82;20987;-81
2022/01/30 05:11:58;;;;;;;4.22;1.32;;;;;;;2.83;77.18;95602.39;1730828;82;21339;-81
2022/01/30 05:14:27;;;;;;;6.30;2.22;;;;;;;2.75;75.93;95601.86;1711085;83;21020;-81
2022/01/30 05:16:53;;;;;;;4.78;1.60;;;;;;;2.64;76.86;95600.85;1710962;82;21017;-81
2022/01/30 05:19:19;;;;;;;6.42;2.17;;;;;;;2.52;78.12;95559.27;1711204;82;21357;-81
2022/01/30 05:21:45;;;;;;;4.78;1.95;;;;;;;2.43;78.51;95561.44;1710942;84;21075;-81
2022/01/30 05:24:12;;;;;;;4.42;1.60;;;;;;;2.36;78.63;95566.38;1711190;83;21012;-84
2022/01/30 05:26:41;;;;;;;5.28;1.55;;;;;;;2.34;78.87;95561.89;1704009;83;21119;-82
2022/01/30 05:29:08;;;;;;;4.75;2.10;;;;;;;2.30;79.31;95561.06;1703797;84;20996;-83
2022/01/30 05:31:34;;;;;;;9.63;2.55;;;;;;;2.24;79.38;95549.63;1703667;84;21025;-82
2022/01/30 05:34:01;;;;;;;7.78;2.60;;;;;;;2.19;79.49;95544.16;1703836;84;21387;-82
2022/01/30 05:36:26;;;;;;;6.90;2.37;;;;;;;2.18;79.68;95554.09;1703786;84;20984;-82
2022/01/30 05:38:52;;;;;;;6.92;2.40;;;;;;;2.16;79.71;95549.59;1703709;84;20996;-82
2022/01/30 05:41:19;;;;;;;5.75;2.67;;;;;;;2.16;79.68;95551.36;1703803;84;21021;-82
2022/01/30 05:43:50;;;;;;;9.33;3.98;;;;;;;2.18;79.67;95566.10;1683548;84;21041;-82
2022/01/30 05:46:17;;;;;;;6.37;2.65;;;;;;;2.18;79.71;95561.78;1703601;82;20974;-82
2022/01/30 05:48:41;;;;;;;9.00;3.02;;;;;;;2.17;79.77;95565.30;1705812;83;21427;-82
2022/01/30 05:51:08;;;;;;;12.82;4.70;;;;;;;2.16;80.17;95566.73;1732517;83;21002;-82
2022/01/30 05:53:34;;;;;;;6.78;2.95;;;;;;;2.15;80.09;95578.74;1732898;82;21411;-82
2022/01/30 05:55:59;;;;;;;5.37;3.55;;;;;;;2.17;79.95;95579.39;1732899;83;20961;-82
2022/01/30 05:58:25;;;;;;;7.78;4.50;;;;;;;2.19;79.93;95570.27;1732980;82;20978;-82
2022/01/30 06:00:51;;;;;;;5.60;3.02;;;;;;;2.20;79.80;95575.24;1732351;83;20976;-82
2022/01/30 06:03:16;;;;;;;7.15;2.95;;;;;;;2.20;79.63;95570.13;1732875;82;21092;-82
2022/01/30 06:05:45;;;;;;;5.80;2.95;;;;;;;2.20;79.56;95558.59;1732937;83;21360;-82
2022/01/30 06:08:13;;;;;;;5.67;1.98;;;;;;;2.22;79.10;95551.55;1732833;83;21030;-82
2022/01/30 06:10:37;;;;;;;5.37;1.92;;;;;;;2.25;78.17;95547.39;1732526;83;21033;-82
2022/01/30 06:13:03;;;;;;;5.53;2.20;;;;;;;2.32;78.11;95527.11;1732954;83;20941;-82
2022/01/30 06:15:29;;;;;;;6.17;2.20;;;;;;;2.37;78.06;95538.98;1732913;83;21337;-82
2022/01/30 06:17:54;;;;;;;5.47;2.35;;;;;;;2.42;77.68;95548.30;1732892;83;21032;-82
2022/01/30 06:20:20;;;;;;;3.58;1.90;;;;;;;2.45;77.04;95551.06;1732800;83;20965;-82
2022/01/30 06:22:46;;;;;;;3.85;1.98;;;;;;;2.45;77.50;95547.22;1732854;83;21420;-83
2022/01/30 06:25:12;;;;;;;3.17;1.92;;;;;;;2.41;77.28;95556.47;1733841;82;21024;-82
2022/01/30 06:27:37;;;;;;;4.40;2.37;;;;;;;2.40;77.68;95554.86;1737840;82;20973;-82
2022/01/30 06:30:05;;;;;;;5.17;1.95;;;;;;;2.43;76.50;95551.66;1751648;81;20969;-82
2022/01/30 06:32:31;;;;;;;8.23;4.58;;;;;;;2.42;75.99;95543.17;1741947;82;21024;-82
2022/01/30 06:34:56;;;;;;;3.35;2.50;;;;;;;2.42;76.44;95532.91;1741063;82;20937;-82
2022/01/30 06:37:22;;;;;;;159.25;77.22;;;;;;;2.40;75.84;95530.98;1741106;82;21359;-82
2022/01/30 06:39:48;;;;;;;15.53;6.35;;;;;;;2.39;76.42;95530.66;1741026;81;20976;-83
2022/01/30 06:42:14;;;;;;;6.72;2.83;;;;;;;2.37;76.38;95532.09;1741097;82;21044;-82
2022/01/30 06:44:40;;;;;;;4.12;2.45;;;;;;;2.35;76.56;95528.88;1740995;82;21340;-82
2022/01/30 06:47:06;;;;;;;17.60;8.13;;;;;;;2.35;76.68;95526.32;1740973;82;21060;-82
2022/01/30 06:49:32;;;;;;;69.72;23.42;;;;;;;2.35;76.80;95523.75;1740870;82;21316;-82
2022/01/30 06:51:57;;;;;;;10.10;4.03;;;;;;;2.32;76.85;95521.50;1740983;82;21000;-83
2022/01/30 06:54:23;;;;;;;4.90;2.17;;;;;;;2.30;76.91;95524.70;1740988;82;21016;-82
2022/01/30 06:56:49;;;;;;;4.62;2.45;;;;;;;2.26;76.63;95527.22;1741018;81;20922;-82
2022/01/30 06:59:14;;;;;;;8.28;3.22;;;;;;;2.28;76.48;95519.41;1740950;82;21366;-82
2022/01/30 07:01:40;;;;;;;5.87;2.40;;;;;;;2.30;76.34;95525.98;1740983;82;20957;-82
2022/01/30 07:04:06;;;;;;;13.08;5.33;;;;;;;2.35;75.67;95528.88;1741045;82;20981;-82
2022/01/30 07:06:32;;;;;;;5.22;2.22;;;;;;;2.39;75.84;95516.56;1740898;82;20942;-82
2022/01/30 07:08:58;;;;;;;5.22;2.80;;;;;;;2.40;75.93;95518.97;1741025;82;21446;-83
2022/01/30 07:11:23;;;;;;;18.67;8.58;;;;;;;2.41;75.27;95511.59;1741225;82;20972;-82
2022/01/30 07:13:49;;;;;;;8.33;4.75;;;;;;;2.44;74.87;95513.08;1740797;82;21269;-82
2022/01/30 07:16:15;;;;;;;4.65;2.52;;;;;;;2.45;74.60;95498.50;1740922;82;21416;-82
2022/01/30 07:18:42;;;;;;;3.85;1.95;;;;;;;2.45;74.67;95519.01;1735022;82;20992;-82
2022/01/30 07:21:09;;;;;;;14.95;5.47;;;;;;;2.47;75.08;95502.99;1740980;82;21356;-82
2022/01/30 07:23:37;;;;;;;9.48;4.17;;;;;;;2.51;74.95;95494.03;1720083;82;21008;-82
2022/01/30 07:26:03;;;;;;;13.78;4.30;;;;;;;2.52;74.90;95491.79;1723330;82;20961;-82
2022/01/30 07:28:29;;;;;;;23.40;10.53;;;;;;;2.54;74.63;95498.84;1754708;82;20980;-82
2022/01/30 07:30:55;;;;;;;6.33;2.65;;;;;;;2.56;74.92;95496.92;1741208;82;20965;-82
2022/01/30 07:33:22;;;;;;;8.65;3.00;;;;;;;2.55;74.60;95473.05;1740688;82;20989;-82
2022/01/30 07:35:50;;;;;;;7.05;2.55;;;;;;;2.56;74.46;95475.13;1741233;82;20945;-83
2022/01/30 07:38:16;;;;;;;4.10;2.22;;;;;;;2.56;74.30;95459.27;1741984;81;20981;-82
2022/01/30 07:40:43;;;;;;;6.20;4.72;;;;;;;2.55;74.25;95456.38;1740848;82;21036;-82
2022/01/30 07:43:10;;;;;;;6.33;2.40;;;;;;;2.55;74.43;95455.09;1741045;82;20976;-82
2022/01/30 07:45:36;;;;;;;4.97;2.30;;;;;;;2.55;73.82;95466.63;1740892;82;21041;-82
2022/01/30 07:48:02;;;;;;;5.70;4.17;;;;;;;2.59;73.71;95468.41;1740632;82;20964;-82
2022/01/30 07:50:29;;;;;;;8.45;6.78;;;;;;;2.58;73.68;95470.64;1740829;81;20925;-82
2022/01/30 07:52:55;;;;;;;3.87;2.20;;;;;;;2.58;73.90;95468.08;1740752;82;21059;-82
2022/01/30 07:55:21;;;;;;;6.50;3.70;;;;;;;2.57;73.65;95482.66;1719933;82;21062;-82
2022/01/30 07:57:46;;;;;;;13.08;11.73;;;;;;;2.57;74.44;95511.35;1741083;81;21046;-82
2022/01/30 08:00:13;;;;;;;4.83;3.10;;;;;;;2.51;74.81;95503.80;1740896;82;21375;-82
2022/01/30 08:02:39;;;;;;;5.62;3.20;;;;;;;2.53;75.01;95481.85;1740666;82;21004;-82
2022/01/30 08:05:06;;;;;;;3.77;2.15;;;;;;;2.51;75.34;95489.70;1740766;81;20981;-82
2022/01/30 08:07:31;;;;;;;3.67;2.27;;;;;;;2.50;75.40;95490.66;1740724;82;20984;-82
2022/01/30 08:09:57;;;;;;;3.77;2.17;;;;;;;2.49;75.52;95479.28;1741117;81;20960;-82
2022/01/30 08:12:23;;;;;;;5.08;2.00;;;;;;;2.46;75.68;95469.34;1741200;82;21044;-82
2022/01/30 08:14:49;;;;;;;4.55;2.15;;;;;;;2.47;75.81;95472.22;1740969;81;20929;-82
2022/01/30 08:17:21;;;;;;;5.15;2.20;;;;;;;2.51;75.55;95454.28;1740934;82;20940;-82
2022/01/30 08:19:44;;;;;;;4.55;2.87;;;;;;;2.52;75.82;95468.23;1740485;82;20938;-82
2022/01/30 08:22:10;;;;;;;4.70;2.40;;;;;;;2.53;75.44;95461.34;1741338;82;21023;-82
2022/01/30 08:24:36;;;;;;;6.15;2.40;;;;;;;2.53;75.48;95479.29;1740886;81;20972;-82
2022/01/30 08:27:02;;;;;;;5.55;2.47;;;;;;;2.54;75.03;95441.14;1744805;81;21486;-82
2022/01/30 08:29:27;;;;;;;5.00;2.50;;;;;;;2.58;75.21;95436.83;1740836;82;20988;-82
2022/01/30 08:31:55;;;;;;;7.22;2.90;;;;;;;2.63;74.81;95416.66;1740554;81;21009;-82
2022/01/30 08:34:21;;;;;;;6.70;2.40;;;;;;;2.69;74.55;95431.42;1740770;82;21017;-82
2022/01/30 08:36:46;;;;;;;4.90;2.30;;;;;;;2.77;74.28;95446.05;1740807;81;21382;-82
2022/01/30 08:39:12;;;;;;;8.03;2.30;;;;;;;2.82;74.10;95429.70;1740834;81;21001;-82
2022/01/30 08:41:38;;;;;;;3.80;2.10;;;;;;;2.95;73.32;95431.81;1740877;81;20980;-82
2022/01/30 08:44:04;;;;;;;6.05;1.90;;;;;;;2.97;73.84;95423.47;1740872;81;21451;-82
2022/01/30 08:46:30;;;;;;;6.45;2.00;;;;;;;2.97;73.39;95438.87;1740900;82;21704;-82
2022/01/30 08:48:56;;;;;;;7.50;2.50;;;;;;;2.99;73.74;95453.14;1740831;81;20957;-82
2022/01/30 08:51:22;;;;;;;7.33;4.20;;;;;;;3.03;74.36;95462.61;1740730;81;21028;-82
2022/01/30 08:53:48;;;;;;;6.40;3.20;;;;;;;3.04;74.03;95423.15;1740619;82;20981;-83
2022/01/30 08:56:14;;;;;;;7.37;3.33;;;;;;;3.08;74.03;95434.70;1741011;81;21366;-82
2022/01/30 08:58:40;;;;;;;5.28;2.70;;;;;;;3.10;74.12;95466.17;1740865;81;20966;-82
2022/01/30 09:01:05;;;;;;;21.37;12.55;;;;;;;3.04;74.04;95470.62;1740871;81;21051;-82
2022/01/30 09:03:31;;;;;;;24.80;15.32;;;;;;;2.97;74.19;95478.16;1719748;82;20985;-82
2022/01/30 09:05:57;;;;;;;7.95;4.20;;;;;;;2.87;74.56;95482.62;1740868;82;20961;-82
2022/01/30 09:08:22;;;;;;;5.53;2.45;;;;;;;2.73;75.33;95507.58;1740791;81;20945;-82
2022/01/30 09:10:49;;;;;;;11.53;5.45;;;;;;;2.59;76.38;95482.03;1719783;82;20949;-82
2022/01/30 09:13:15;;;;;;;6.42;3.42;;;;;;;2.44;77.00;95500.26;1740725;82;21052;-82
2022/01/30 09:15:42;;;;;;;6.83;3.20;;;;;;;2.39;77.61;95502.45;1740982;82;21015;-82
2022/01/30 09:18:10;;;;;;;6.00;3.55;;;;;;;2.24;78.73;95497.56;1737823;81;21000;-82
2022/01/30 09:20:39;;;;;;;7.92;3.33;;;;;;;2.09;79.00;95510.93;1740420;81;21100;-82
2022/01/30 09:23:05;;;;;;;8.90;3.50;;;;;;;1.97;79.58;95535.69;1740574;82;21051;-82
2022/01/30 09:25:30;;;;;;;7.50;4.50;;;;;;;1.89;80.21;95542.02;1741524;82;21476;-82
2022/01/30 09:27:56;;;;;;;8.25;4.08;;;;;;;1.82;80.51;95561.51;1746444;81;21066;-82
2022/01/30 09:30:22;;;;;;;25.57;13.88;;;;;;;1.78;81.22;95540.01;1745944;81;20992;-82
2022/01/30 09:32:49;;;;;;;22.40;11.30;;;;;;;1.77;81.32;95535.84;1740772;82;21049;-82
2022/01/30 09:35:14;;;;;;;70.70;32.40;;;;;;;1.78;81.28;95519.52;1740897;82;20992;-82
2022/01/30 09:37:40;;;;;;;296.68;127.50;;;;;;;1.83;81.57;95515.73;1740780;82;20988;-82
2022/01/30 09:40:07;;;;;;;42.03;18.67;;;;;;;1.83;81.55;95494.76;1740782;82;21048;-82
2022/01/30 09:42:32;;;;;;;58.33;21.70;;;;;;;1.86;81.70;95525.67;1740512;82;20973;-82
2022/01/30 09:45:00;;;;;;;18.12;8.95;;;;;;;1.92;81.74;95503.29;1740873;82;21359;-82
2022/01/30 09:47:26;;;;;;;25.45;13.62;;;;;;;1.96;81.47;95512.31;1740715;82;20997;-82
2022/01/30 09:49:53;;;;;;;37.93;17.42;;;;;;;2.00;81.68;95516.17;1740101;82;20961;-82
2022/01/30 09:52:19;;;;;;;12.85;6.80;;;;;;;2.04;81.31;95504.18;1740907;81;20929;-82
2022/01/30 09:54:46;;;;;;;38.75;11.03;;;;;;;2.04;80.96;95502.09;1740534;82;21021;-82
2022/01/30 09:57:12;;;;;;;16.45;5.65;;;;;;;2.07;80.89;95501.79;1740734;82;20953;-82
2022/01/30 09:59:38;;;;;;;17.30;5.85;;;;;;;2.10;80.05;95523.27;1740854;81;20988;-82
2022/01/30 10:02:05;;;;;;;8.60;4.40;;;;;;;2.14;79.18;95550.23;1740835;81;20984;-83
2022/01/30 10:04:31;;;;;;;19.80;9.10;;;;;;;2.19;78.62;95532.63;1740692;82;21503;-82
2022/01/30 10:07:02;;;;;;;10.65;3.90;;;;;;;2.20;77.47;95521.42;1740993;81;21011;-82
2022/01/30 10:09:31;;;;;;;14.20;4.72;;;;;;;2.22;77.61;95520.79;1740550;82;20978;-82
2022/01/30 10:12:14;;;;;;;18.95;5.37;;;;;;;2.25;78.05;95505.58;1740732;82;21055;-82
2022/01/30 10:15:01;;;;;;;10.50;3.70;;;;;;;2.26;78.15;95495.17;1740502;82;20962;-82
2022/01/30 10:17:37;;;;;;;10.00;4.15;;;;;;;2.29;77.90;95508.99;1719799;82;20937;-82
2022/01/30 10:20:13;;;;;;;10.58;6.15;;;;;;;2.32;77.90;95509.16;1740779;82;20973;-82
2022/01/30 10:22:58;;;;;;;21.02;10.53;;;;;;;2.32;77.92;95508.69;1740687;82;21005;-83
2022/01/30 10:25:28;;;;;;;15.05;9.45;;;;;;;2.32;78.05;95517.66;1740843;82;21071;-82
2022/01/30 10:28:16;;;;;;;36.93;12.95;;;;;;;2.32;78.03;95497.63;1746358;81;21026;-82
2022/01/30 10:30:52;;;;;;;9.23;4.65;;;;;;;2.31;78.20;95508.84;1746349;82;21383;-82
2022/01/30 10:33:39;;;;;;;41.58;10.50;;;;;;;2.32;77.33;95489.45;1743758;81;20957;-82
2022/01/30 10:36:08;;;;;;;14.90;5.10;;;;;;;2.33;77.71;95500.52;1740541;81;21000;-83
2022/01/30 10:38:46;;;;;;;27.58;8.35;;;;;;;2.32;77.24;95513.01;1740958;82;21032;-82
2022/01/30 10:41:21;;;;;;;59.27;14.73;;;;;;;2.33;77.12;95495.39;1740704;82;21029;-82
2022/01/30 10:44:05;;;;;;;17.85;6.72;;;;;;;2.34;77.42;95509.81;1739849;82;21032;-82
2022/01/30 10:46:43;;;;;;;13.43;5.53;;;;;;;2.36;76.54;95509.17;1740718;82;21004;-82
2022/01/30 10:49:16;;;;;;;40.00;8.53;;;;;;;2.38;76.88;95494.44;1733953;82;20949;-83
2022/01/30 10:51:56;;;;;;;19.90;6.42;;;;;;;2.40;76.42;95484.83;1735092;82;21053;-83
2022/01/30 10:54:26;;;;;;;15.30;5.40;;;;;;;2.40;76.73;95471.53;1740740;82;21025;-83
2022/01/30 10:57:06;;;;;;;17.17;5.33;;;;;;;2.40;76.43;95492.53;1740851;82;20969;-82
2022/01/30 10:59:33;;;;;;;26.93;7.03;;;;;;;2.42;75.68;95484.20;1740824;82;20992;-82
2022/01/30 11:02:17;;;;;;;8.60;4.12;;;;;;;2.48;75.62;95494.34;1740773;82;21340;-82
2022/01/30 11:04:44;;;;;;;7.15;3.72;;;;;;;2.55;75.56;95495.32;1740735;82;21047;-83
2022/01/30 11:07:10;;;;;;;7.97;3.62;;;;;;;2.60;74.40;95502.06;1740913;82;20981;-82
2022/01/30 11:09:41;;;;;;;57.23;14.90;;;;;;;2.63;74.50;95473.57;1740880;82;20988;-82
2022/01/30 11:12:10;;;;;;;75.60;16.42;;;;;;;2.67;74.86;95490.25;1740486;82;21041;-82
2022/01/30 11:17:15;;;;;;;6.62;3.35;;;;;;;2.68;74.24;95488.01;1741072;82;21008;-82
2022/01/30 11:19:48;;;;;;;25.05;6.55;;;;;;;2.70;73.75;95511.26;1740943;82;20958;-82
2022/01/30 11:22:17;;;;;;;15.85;4.47;;;;;;;2.70;73.06;95489.94;1740962;82;20995;-82
2022/01/30 11:25:03;;;;;;;11.73;3.98;;;;;;;2.70;72.76;95496.34;1740867;82;21048;-82
2022/01/30 11:27:28;;;;;;;11.60;4.90;;;;;;;2.70;73.50;95485.61;1734106;81;21040;-83
2022/01/30 11:29:54;;;;;;;14.60;8.70;;;;;;;2.72;73.25;95484.17;1732984;82;20993;-82
2022/01/30 11:32:22;;;;;;;10.13;5.60;;;;;;;2.70;73.74;95515.59;1732937;82;20957;-82
2022/01/30 11:34:48;;;;;;;23.52;9.43;;;;;;;2.69;73.06;95501.16;1732977;82;21052;-82
2022/01/30 11:37:18;;;;;;;27.55;13.30;;;;;;;2.66;73.57;95510.45;1732972;82;20965;-83
2022/01/30 11:39:48;;;;;;;21.70;12.47;;;;;;;2.66;73.40;95502.27;1732614;83;21053;-83
2022/01/30 11:42:25;;;;;;;18.65;9.85;;;;;;;2.66;73.47;95507.88;1732872;82;21001;-82
2022/01/30 11:45:04;;;;;;;20.80;7.58;;;;;;;2.68;73.23;95521.35;1732932;83;21025;-82
2022/01/30 11:47:50;;;;;;;16.32;5.12;;;;;;;2.71;72.92;95514.63;1731085;83;21057;-82
2022/01/30 11:50:30;;;;;;;11.15;4.08;;;;;;;2.68;71.76;95514.45;1733209;82;20957;-82
2022/01/30 11:53:03;;;;;;;12.65;3.98;;;;;;;2.77;72.06;95514.03;1732694;82;21497;-82
2022/01/30 11:55:48;;;;;;;8.25;4.00;;;;;;;2.78;71.99;95516.92;1732575;83;20930;-82
2022/01/30 11:58:34;;;;;;;;;;;;;;;2.79;71.27;95519.80;1735337;82;21053;-82
2022/01/30 12:01:05;;;;;;;12.55;4.83;;;;;;;2.79;71.52;95522.37;1710181;81;20384;-83
2022/01/30 12:03:37;;;;;;;9.88;4.75;;;;;;;2.76;70.13;95532.91;1726526;83;21482;-82
2022/01/30 12:06:23;;;;;;;8.85;3.00;;;;;;;2.75;71.52;95560.81;1733052;82;21005;-82
2022/01/30 12:08:52;;;;;;;6.37;3.15;;;;;;;2.71;70.91;95560.32;1732150;83;20993;-82
2022/01/30 12:11:47;;;;;;;6.20;2.90;;;;;;;2.64;72.51;95555.48;1732907;82;21036;-82
2022/01/30 12:14:29;;;;;;;8.08;3.02;;;;;;;2.62;71.67;95559.97;1733192;82;20965;-82
2022/01/30 12:17:03;;;;;;;9.60;3.20;;;;;;;2.60;71.89;95585.41;1732658;83;20988;-82
2022/01/30 12:19:39;;;;;;;8.10;3.08;;;;;;;2.59;72.80;95576.92;1732225;82;21005;-82
2022/01/30 12:22:23;;;;;;;6.08;2.80;;;;;;;2.53;73.41;95608.79;1732732;83;21439;-82
2022/01/30 12:24:54;;;;;;;8.70;4.15;;;;;;;2.43;75.45;95627.30;1732735;83;21060;-82
2022/01/30 12:27:20;;;;;;;11.18;3.75;;;;;;;2.25;76.92;95595.30;1714423;82;20946;-82
2022/01/30 12:29:51;;;;;;;9.15;4.33;;;;;;;2.15;77.17;95608.22;1741019;82;21387;-82
2022/01/30 12:32:28;;;;;;;10.45;4.67;;;;;;;2.09;77.28;95601.91;1740747;82;21064;-82
2022/01/30 12:35:04;;;;;;;10.98;3.92;;;;;;;2.07;77.67;95595.32;1740809;82;20993;-82
2022/01/30 12:37:35;;;;;;;14.65;6.15;;;;;;;2.03;78.38;95585.85;1740899;82;20964;-82